Terminal Aerodrome Forecast
Issued by NWS Cleveland, OH

Home | Current Version | Previous Version | Graphics & Text | Print | Product List | Glossary On
Versions: 1 2 3 4 5 6 7 8 9 10 11 12 13 14 15 16 17 18 19 20
000
FTUS41 KCLE 150540
TAFYNG
TAF
KYNG 150540Z 1506/1606 18008KT P6SM BKN150 WS020/21035KT
     FM151100 20010G18KT P6SM BKN120
     FM151400 21015G25KT P6SM BKN050
     FM151900 26020G35KT 6SM -SHRA VCTS OVC025CB
     FM152100 27015G25KT P6SM OVC020
     FM160300 30011KT P6SM BKN020=

USA.gov is the U.S. government's official web portal to all federal, state and local government web resources and services.